createdAt,value
2022-12-23T00:01:29.265Z,20.37
2022-12-23T00:03:59.882Z,19.50
2022-12-23T00:06:28.418Z,16.80
2022-12-23T00:08:58.696Z,16.17
2022-12-23T00:11:28.887Z,15.27
2022-12-23T00:14:20.367Z,16.63
2022-12-23T00:16:51.638Z,16.50
2022-12-23T00:19:20.534Z,15.93
2022-12-23T00:21:49.489Z,14.70
2022-12-23T00:24:18.189Z,15.77
2022-12-23T00:26:46.698Z,16.13
2022-12-23T00:29:15.155Z,15.57
2022-12-23T00:31:43.741Z,15.10
2022-12-23T00:34:13.988Z,16.00
2022-12-23T00:36:42.452Z,15.73
2022-12-23T00:39:31.075Z,16.27
2022-12-23T00:42:17.286Z,21.23
2022-12-23T00:44:46.021Z,16.90
2022-12-23T00:47:36.079Z,15.97
2022-12-23T00:50:05.317Z,16.73
2022-12-23T00:52:33.803Z,15.47
2022-12-23T00:55:02.297Z,16.70
2022-12-23T00:57:30.823Z,16.70
2022-12-23T01:00:00.440Z,15.53
2022-12-23T01:02:46.460Z,15.57
2022-12-23T01:05:35.902Z,15.63
2022-12-23T01:08:04.489Z,15.17
2022-12-23T01:10:32.981Z,15.30
2022-12-23T01:13:01.432Z,16.07
2022-12-23T01:15:30.231Z,16.90
2022-12-23T01:17:58.693Z,17.97
2022-12-23T01:20:28.613Z,16.13
2022-12-23T01:22:57.074Z,17.73
2022-12-23T01:25:25.654Z,16.53
2022-12-23T01:27:54.228Z,17.77
2022-12-23T01:30:22.817Z,17.67
2022-12-23T01:32:51.609Z,17.83
2022-12-23T01:35:20.005Z,16.57
2022-12-23T01:37:49.791Z,16.17
2022-12-23T01:40:18.524Z,17.33
2022-12-23T01:42:47.442Z,16.60
2022-12-23T01:45:18.919Z,16.30
2022-12-23T01:47:50.863Z,17.73
2022-12-23T01:50:23.039Z,17.40
2022-12-23T01:53:03.097Z,17.40
2022-12-23T01:55:38.647Z,18.93
2022-12-23T01:58:10.457Z,17.33
2022-12-23T02:00:56.545Z,16.73
2022-12-23T02:03:43.720Z,16.30
2022-12-23T02:06:33.423Z,16.03
2022-12-23T02:09:18.301Z,15.63
2022-12-23T02:12:33.592Z,16.90
2022-12-23T02:15:30.216Z,15.93
2022-12-23T02:18:07.417Z,16.53
2022-12-23T02:21:05.033Z,17.33
2022-12-23T02:24:13.798Z,17.93
2022-12-23T02:27:04.215Z,16.77
2022-12-23T02:30:17.031Z,17.97
2022-12-23T02:33:05.153Z,18.67
2022-12-23T02:35:38.522Z,17.90
2022-12-23T02:38:11.551Z,19.07
2022-12-23T02:40:44.129Z,17.60
2022-12-23T02:43:17.219Z,19.43
2022-12-23T02:45:48.068Z,18.90
2022-12-23T02:48:23.196Z,19.97
2022-12-23T02:50:53.270Z,19.53
2022-12-23T02:53:25.835Z,20.47
2022-12-23T02:55:54.931Z,19.13
2022-12-23T02:58:27.624Z,19.17
2022-12-23T03:00:57.149Z,20.73
2022-12-23T03:03:27.856Z,21.07
2022-12-23T03:05:56.425Z,21.47
2022-12-23T03:08:27.316Z,19.10
2022-12-23T03:11:04.191Z,20.03
2022-12-23T03:13:50.300Z,21.33
2022-12-23T03:16:23.830Z,20.00
2022-12-23T03:19:04.349Z,18.67
2022-12-23T03:21:36.944Z,19.53
2022-12-23T03:24:15.655Z,19.50
2022-12-23T03:26:51.299Z,19.20
2022-12-23T03:29:22.248Z,19.70
2022-12-23T03:31:51.426Z,19.47
2022-12-23T03:34:23.605Z,20.17
2022-12-23T03:36:53.517Z,20.30
2022-12-23T03:39:24.854Z,21.17
2022-12-23T03:41:56.890Z,20.23
2022-12-23T03:44:29.386Z,20.63
2022-12-23T03:47:02.047Z,20.07
2022-12-23T03:49:34.937Z,19.77
2022-12-23T03:52:07.455Z,19.37
2022-12-23T03:54:38.360Z,20.57
2022-12-23T03:57:07.439Z,21.63
2022-12-23T03:59:37.491Z,20.87
2022-12-23T04:02:10.120Z,22.03
2022-12-23T04:04:51.755Z,20.50
2022-12-23T04:07:22.673Z,23.07
2022-12-23T04:09:52.670Z,20.30
2022-12-23T04:12:22.434Z,22.40
2022-12-23T04:14:51.634Z,21.30
2022-12-23T04:17:20.730Z,19.17
2022-12-23T04:19:50.906Z,21.90
2022-12-23T04:22:19.210Z,22.23
2022-12-23T04:24:47.666Z,20.10
2022-12-23T04:27:17.105Z,21.27
2022-12-23T04:29:46.704Z,22.43
2022-12-23T04:32:15.130Z,21.43
2022-12-23T04:34:43.560Z,22.13
2022-12-23T04:37:13.278Z,22.83
2022-12-23T04:39:41.643Z,23.00
2022-12-23T04:42:10.092Z,22.70
2022-12-23T04:44:38.452Z,22.07
2022-12-23T04:47:06.899Z,21.57
2022-12-23T04:49:35.406Z,20.70
2022-12-23T04:52:03.808Z,23.37
2022-12-23T04:54:33.569Z,22.70
2022-12-23T04:57:02.054Z,22.70
2022-12-23T04:59:31.465Z,23.83
2022-12-23T05:02:00.205Z,22.80
2022-12-23T05:04:28.874Z,23.87
2022-12-23T05:06:57.401Z,24.00
2022-12-23T05:09:25.993Z,21.90
2022-12-23T05:11:55.896Z,22.17
2022-12-23T05:14:24.183Z,23.53
2022-12-23T05:16:52.620Z,24.37
2022-12-23T05:19:20.952Z,23.37
2022-12-23T05:21:49.294Z,25.53
2022-12-23T05:24:17.597Z,24.53
2022-12-23T05:26:50.805Z,26.23
2022-12-23T05:29:25.373Z,24.87
2022-12-23T05:31:53.856Z,25.40
2022-12-23T05:34:22.599Z,24.10
2022-12-23T05:36:50.923Z,26.07
2022-12-23T05:39:19.237Z,25.40
2022-12-23T05:41:47.699Z,25.77
2022-12-23T05:44:16.101Z,24.27
2022-12-23T05:46:45.722Z,27.60
2022-12-23T05:49:14.088Z,25.40
2022-12-23T05:51:42.333Z,27.73
2022-12-23T05:54:10.710Z,26.30
2022-12-23T05:56:38.884Z,26.80
2022-12-23T05:59:07.329Z,26.97
2022-12-23T06:01:35.911Z,29.13
2022-12-23T06:04:06.161Z,27.93
2022-12-23T06:06:34.652Z,28.47
2022-12-23T06:09:03.033Z,28.73
2022-12-23T06:11:31.350Z,28.33
2022-12-23T06:13:59.799Z,27.47
2022-12-23T06:16:28.134Z,27.00
2022-12-23T06:18:56.987Z,27.63
2022-12-23T06:21:26.740Z,26.73
2022-12-23T06:23:55.281Z,27.20
2022-12-23T06:26:24.058Z,29.77
2022-12-23T06:28:52.315Z,28.20
2022-12-23T06:31:20.856Z,28.23
2022-12-23T06:33:49.324Z,27.30
2022-12-23T06:36:17.980Z,26.27
2022-12-23T06:38:47.776Z,26.30
2022-12-23T06:41:16.363Z,26.50
2022-12-23T06:43:46.244Z,27.27
2022-12-23T06:46:17.580Z,27.00
2022-12-23T06:48:45.911Z,26.77
2022-12-23T06:51:14.650Z,27.30
2022-12-23T06:53:43.289Z,26.47
2022-12-23T06:56:13.007Z,27.90
2022-12-23T06:58:41.400Z,26.23
2022-12-23T07:01:10.337Z,28.57
2022-12-23T07:03:38.948Z,25.77
2022-12-23T07:06:07.960Z,27.23
2022-12-23T07:08:36.325Z,28.13
2022-12-23T07:11:05.294Z,27.83
2022-12-23T07:13:35.261Z,28.47
2022-12-23T07:16:07.425Z,28.50
2022-12-23T07:18:36.503Z,26.50
2022-12-23T07:21:07.849Z,25.80
2022-12-23T07:23:39.389Z,26.07
2022-12-23T07:26:07.694Z,25.73
2022-12-23T07:28:37.587Z,26.47
2022-12-23T07:31:06.855Z,25.60
2022-12-23T07:33:35.555Z,27.10
2022-12-23T07:36:03.961Z,23.93
2022-12-23T07:38:32.351Z,25.20
2022-12-23T07:41:00.720Z,25.47
2022-12-23T07:43:29.281Z,24.40
2022-12-23T07:46:00.853Z,23.73
2022-12-23T07:48:29.555Z,25.97
2022-12-23T07:51:01.708Z,26.47
2022-12-23T07:53:30.406Z,24.33
2022-12-23T07:55:59.167Z,24.80
2022-12-23T07:58:27.583Z,25.47
2022-12-23T08:01:02.616Z,24.20
2022-12-23T08:03:31.338Z,24.87
2022-12-23T08:06:04.076Z,25.90
2022-12-23T08:08:32.760Z,26.33
2022-12-23T08:11:02.046Z,25.40
2022-12-23T08:13:30.544Z,25.70
2022-12-23T08:16:01.657Z,24.77
2022-12-23T08:18:31.600Z,25.93
2022-12-23T08:21:01.293Z,26.30
2022-12-23T08:23:30.934Z,24.73
2022-12-23T08:26:03.679Z,24.70
2022-12-23T08:28:33.323Z,24.57
2022-12-23T08:31:07.946Z,24.07
2022-12-23T08:33:38.191Z,23.73
2022-12-23T08:36:08.364Z,24.93
2022-12-23T08:38:36.856Z,24.67
2022-12-23T08:41:09.219Z,22.63
2022-12-23T08:43:37.618Z,22.63
2022-12-23T08:46:08.110Z,22.83
2022-12-23T08:48:37.120Z,22.70
2022-12-23T08:51:06.911Z,21.27
2022-12-23T08:53:35.950Z,21.07
2022-12-23T08:56:06.105Z,19.90
2022-12-23T08:58:38.102Z,20.80
2022-12-23T09:01:09.592Z,19.83
2022-12-23T09:03:38.918Z,19.30
2022-12-23T09:06:08.459Z,19.70
2022-12-23T09:08:37.327Z,19.83
2022-12-23T09:11:05.826Z,19.30
2022-12-23T09:13:35.951Z,16.00
2022-12-23T09:16:04.603Z,17.40
2022-12-23T09:18:34.493Z,16.40
2022-12-23T09:21:04.821Z,15.83
2022-12-23T09:23:33.584Z,17.50
2022-12-23T09:26:02.132Z,16.63
2022-12-23T09:28:30.437Z,16.23
2022-12-23T09:30:58.821Z,17.60
2022-12-23T09:33:27.175Z,15.73
2022-12-23T09:36:00.852Z,17.70
2022-12-23T09:38:29.367Z,17.00
2022-12-23T09:41:03.869Z,17.20
2022-12-23T09:43:41.170Z,17.07
2022-12-23T09:46:15.325Z,17.63
2022-12-23T09:48:48.322Z,17.70
2022-12-23T09:51:21.064Z,18.07
2022-12-23T09:53:56.643Z,16.30
2022-12-23T09:56:32.894Z,15.27
2022-12-23T09:59:07.740Z,15.50
2022-12-23T10:01:44.957Z,15.80
2022-12-23T10:04:34.065Z,16.57
2022-12-23T10:07:23.572Z,14.33
2022-12-23T10:09:52.996Z,13.80
2022-12-23T10:12:30.716Z,14.13
2022-12-23T10:15:02.909Z,13.63
2022-12-23T10:17:35.599Z,14.60
2022-12-23T10:20:05.822Z,13.43
2022-12-23T10:22:39.208Z,14.13
2022-12-23T10:25:15.655Z,13.50
2022-12-23T10:27:44.477Z,11.33
2022-12-23T10:30:42.539Z,11.60
2022-12-23T10:33:06.351Z,11.37
2022-12-23T10:35:55.853Z,10.27
2022-12-23T10:38:49.097Z,9.90
2022-12-23T10:41:26.680Z,9.40
2022-12-23T10:44:19.431Z,8.47
2022-12-23T10:46:53.230Z,9.17
2022-12-23T10:49:29.643Z,7.97
2022-12-23T10:51:59.473Z,9.60
2022-12-23T10:54:32.184Z,8.60
2022-12-23T10:57:00.824Z,9.13
2022-12-23T10:59:31.109Z,8.33
2022-12-23T11:02:04.181Z,9.10
2022-12-23T11:04:34.929Z,8.67
2022-12-23T11:07:42.082Z,7.67
2022-12-23T11:09:56.659Z,7.87
2022-12-23T11:12:26.242Z,10.13
2022-12-23T11:14:56.677Z,7.97
2022-12-23T11:17:26.808Z,7.63
2022-12-23T11:20:09.297Z,8.27
2022-12-23T11:22:38.411Z,7.43
2022-12-23T11:25:28.079Z,7.33
2022-12-23T11:27:58.721Z,7.33
2022-12-23T11:30:27.171Z,6.80
2022-12-23T11:32:55.546Z,7.27
2022-12-23T11:35:28.818Z,6.40
2022-12-23T11:37:57.577Z,7.67
2022-12-23T11:40:30.795Z,6.27
2022-12-23T11:43:00.905Z,6.83
2022-12-23T11:45:31.087Z,6.77
2022-12-23T11:47:59.807Z,6.47
2022-12-23T11:50:31.396Z,6.97
2022-12-23T11:53:10.032Z,6.77
2022-12-23T11:55:45.332Z,8.07
2022-12-23T11:58:19.752Z,6.83
2022-12-23T12:00:56.027Z,6.37
2022-12-23T12:03:28.246Z,7.03
2022-12-23T12:05:59.408Z,6.87
2022-12-23T12:08:31.461Z,6.67
2022-12-23T12:11:07.089Z,7.60
2022-12-23T12:13:39.589Z,6.70
2022-12-23T12:16:22.135Z,6.67
2022-12-23T12:18:55.739Z,4.90
2022-12-23T12:21:27.294Z,5.43
2022-12-23T12:24:17.107Z,4.70
2022-12-23T12:26:51.278Z,4.40
2022-12-23T12:29:23.283Z,4.10
2022-12-23T12:31:55.293Z,5.00
2022-12-23T12:34:32.744Z,4.10
2022-12-23T12:37:05.021Z,3.80
2022-12-23T12:39:37.355Z,3.27
2022-12-23T12:42:14.810Z,3.90
2022-12-23T12:44:50.623Z,3.50
2022-12-23T12:47:52.066Z,3.57
2022-12-23T12:50:16.834Z,3.60
2022-12-23T12:52:45.594Z,3.30
2022-12-23T12:55:21.111Z,3.33
2022-12-23T12:57:50.723Z,3.63
2022-12-23T13:00:20.900Z,3.00
2022-12-23T13:03:08.405Z,2.90
2022-12-23T13:05:54.798Z,3.07
2022-12-23T13:08:42.164Z,3.80
2022-12-23T13:11:15.840Z,2.93
2022-12-23T13:13:52.593Z,3.27
2022-12-23T13:16:31.623Z,2.57
2022-12-23T13:19:04.135Z,2.60
2022-12-23T13:21:37.423Z,2.50
2022-12-23T13:24:14.321Z,2.77
2022-12-23T13:26:52.034Z,2.17
2022-12-23T13:29:39.195Z,2.50
2022-12-23T13:32:18.810Z,3.03
2022-12-23T13:34:54.238Z,3.27
2022-12-23T13:37:29.721Z,3.23
2022-12-23T13:40:02.103Z,2.80
2022-12-23T13:42:35.308Z,3.47
2022-12-23T13:45:06.004Z,2.87
2022-12-23T13:47:42.906Z,2.80
2022-12-23T13:50:15.054Z,2.97
2022-12-23T13:52:56.664Z,3.23
2022-12-23T13:55:44.194Z,3.20
2022-12-23T13:58:16.509Z,3.27
2022-12-23T14:00:46.431Z,3.07
2022-12-23T14:03:21.096Z,3.10
2022-12-23T14:05:50.694Z,4.23
2022-12-23T14:08:25.229Z,3.40
2022-12-23T14:10:56.578Z,3.53
2022-12-23T14:13:27.446Z,4.03
2022-12-23T14:16:12.719Z,4.17
2022-12-23T14:19:03.078Z,3.83
2022-12-23T14:21:38.849Z,4.20
2022-12-23T14:24:30.141Z,4.17
2022-12-23T14:27:40.918Z,4.33
2022-12-23T14:30:14.543Z,4.87
2022-12-23T14:32:48.829Z,3.83
2022-12-23T14:35:22.199Z,4.93
2022-12-23T14:38:30.967Z,4.40
2022-12-23T14:41:30.945Z,4.40
2022-12-23T14:43:59.851Z,5.00
2022-12-23T14:46:57.998Z,5.27
2022-12-23T14:49:42.841Z,5.77
2022-12-23T14:52:53.971Z,5.70
2022-12-23T14:55:43.716Z,6.40
2022-12-23T14:58:35.482Z,6.83
2022-12-23T15:01:05.815Z,6.73
2022-12-23T15:03:36.353Z,6.73
2022-12-23T15:06:08.213Z,6.07
2022-12-23T15:08:40.582Z,6.50
2022-12-23T15:11:16.062Z,7.03
2022-12-23T15:13:44.696Z,7.80
2022-12-23T15:16:18.056Z,8.47
2022-12-23T15:18:56.575Z,7.77
2022-12-23T15:21:32.181Z,22.50
2022-12-23T15:24:00.879Z,24.50
2022-12-23T15:26:32.243Z,23.57
2022-12-23T15:29:01.829Z,14.40
2022-12-23T15:31:32.960Z,11.77
2022-12-23T15:34:06.149Z,12.60
2022-12-23T15:36:37.860Z,9.47
2022-12-23T15:39:10.578Z,9.77
2022-12-23T15:41:46.162Z,9.80
2022-12-23T15:44:16.807Z,9.93
2022-12-23T15:46:45.609Z,12.33
2022-12-23T15:49:13.956Z,8.87
2022-12-23T15:54:36.801Z,9.70
2022-12-23T15:57:05.944Z,9.67
2022-12-23T15:59:36.447Z,8.90
2022-12-23T16:02:32.662Z,9.30
2022-12-23T16:05:01.331Z,9.17
2022-12-23T16:07:34.674Z,10.20
2022-12-23T16:10:04.727Z,9.97
2022-12-23T16:12:35.788Z,10.67
2022-12-23T16:15:04.790Z,10.57
2022-12-23T16:17:33.922Z,11.03
2022-12-23T16:20:23.370Z,9.47
2022-12-23T16:22:54.228Z,13.37
2022-12-23T16:25:25.916Z,17.77
2022-12-23T16:27:58.075Z,16.17
2022-12-23T16:30:30.420Z,14.50
2022-12-23T16:33:02.131Z,14.80
2022-12-23T16:35:34.415Z,18.53
2022-12-23T16:38:16.240Z,19.53
2022-12-23T16:40:46.007Z,23.47
2022-12-23T16:43:14.293Z,13.67
2022-12-23T16:45:43.157Z,12.23
2022-12-23T16:48:18.247Z,13.20
2022-12-23T16:50:47.516Z,13.83
2022-12-23T16:53:17.162Z,13.50
2022-12-23T16:55:52.355Z,12.07
2022-12-23T16:58:24.977Z,14.07
2022-12-23T17:00:54.081Z,14.83
2022-12-23T17:03:22.474Z,15.63
2022-12-23T17:05:50.890Z,13.57
2022-12-23T17:08:20.730Z,13.03
2022-12-23T17:10:49.133Z,15.13
2022-12-23T17:13:18.865Z,16.07
2022-12-23T17:15:47.342Z,17.83
2022-12-23T17:18:18.223Z,18.17
2022-12-23T17:20:47.580Z,16.47
2022-12-23T17:23:29.237Z,18.20
2022-12-23T17:25:57.897Z,17.33
2022-12-23T17:28:30.297Z,16.67
2022-12-23T17:30:59.890Z,15.80
2022-12-23T17:33:31.085Z,15.90
2022-12-23T17:35:59.485Z,19.27
2022-12-23T17:38:30.049Z,39.23
2022-12-23T17:40:59.477Z,47.97
2022-12-23T17:43:28.136Z,27.37
2022-12-23T17:45:56.831Z,36.37
2022-12-23T17:48:31.090Z,25.70
2022-12-23T17:51:00.419Z,20.03
2022-12-23T17:53:30.230Z,18.87
2022-12-23T17:55:58.458Z,17.77
2022-12-23T17:58:26.728Z,16.13
2022-12-23T18:00:55.046Z,16.10
2022-12-23T18:03:24.523Z,14.90
2022-12-23T18:05:59.386Z,16.13
2022-12-23T18:08:31.473Z,15.77
2022-12-23T18:11:00.006Z,17.47
2022-12-23T18:13:28.338Z,17.40
2022-12-23T18:15:56.555Z,16.27
2022-12-23T18:18:33.313Z,18.37
2022-12-23T18:21:10.278Z,17.97
2022-12-23T18:23:40.202Z,19.47
2022-12-23T18:26:08.575Z,18.90
2022-12-23T18:28:36.768Z,19.20
2022-12-23T18:31:05.188Z,21.37
2022-12-23T18:33:33.511Z,19.27
2022-12-23T18:36:01.881Z,21.67
2022-12-23T18:38:30.204Z,20.23
2022-12-23T18:40:59.922Z,23.10
2022-12-23T18:43:28.434Z,22.73
2022-12-23T18:45:56.767Z,21.80
2022-12-23T18:48:25.198Z,19.60
2022-12-23T18:50:53.467Z,20.77
2022-12-23T18:53:24.983Z,21.20
2022-12-23T18:55:54.299Z,23.53
2022-12-23T18:58:25.613Z,21.13
2022-12-23T19:00:57.374Z,22.30
2022-12-23T19:03:29.618Z,22.83
2022-12-23T19:06:06.337Z,20.13
2022-12-23T19:08:35.917Z,21.20
2022-12-23T19:11:11.753Z,20.93
2022-12-23T19:13:41.443Z,23.13
2022-12-23T19:16:12.412Z,20.60
2022-12-23T19:18:40.728Z,22.23
2022-12-23T19:21:09.275Z,23.93
2022-12-23T19:23:38.170Z,34.47
2022-12-23T19:26:06.862Z,28.37
2022-12-23T19:28:35.440Z,34.70
2022-12-23T19:31:09.572Z,37.70
2022-12-23T19:33:38.559Z,32.03
2022-12-23T19:36:11.094Z,37.33
2022-12-23T19:38:39.686Z,37.77
2022-12-23T19:41:08.288Z,30.03
2022-12-23T19:43:37.381Z,28.57
2022-12-23T19:46:09.381Z,31.50
2022-12-23T19:48:37.841Z,29.67
2022-12-23T19:51:07.840Z,29.33
2022-12-23T19:53:36.907Z,25.30
2022-12-23T19:56:07.166Z,25.83
2022-12-23T19:58:36.931Z,28.20
2022-12-23T20:01:12.431Z,30.67
2022-12-23T20:03:41.283Z,31.70
2022-12-23T20:06:14.535Z,38.93
2022-12-23T20:08:43.721Z,31.20
2022-12-23T20:11:15.517Z,34.93
2022-12-23T20:13:44.030Z,30.37
2022-12-23T20:16:14.403Z,36.10
2022-12-23T20:18:42.953Z,25.47
2022-12-23T20:21:11.290Z,23.33
2022-12-23T20:23:39.679Z,25.63
2022-12-23T20:26:08.090Z,26.80
2022-12-23T20:28:36.476Z,24.83
2022-12-23T20:31:09.015Z,29.17
2022-12-23T20:33:39.386Z,22.50
2022-12-23T20:36:08.769Z,24.10
2022-12-23T20:38:38.677Z,25.70
2022-12-23T20:41:07.043Z,21.27
2022-12-23T20:43:35.473Z,18.57
2022-12-23T20:46:04.181Z,19.47
2022-12-23T20:48:34.492Z,17.43
2022-12-23T20:51:07.125Z,15.73
2022-12-23T20:53:35.858Z,15.63
2022-12-23T20:56:06.220Z,16.00
2022-12-23T20:58:52.191Z,16.30
2022-12-23T21:01:20.620Z,15.03
2022-12-23T21:03:48.982Z,15.67
2022-12-23T21:06:18.571Z,16.57
2022-12-23T21:08:46.909Z,21.50
2022-12-23T21:11:15.165Z,23.30
2022-12-23T21:13:43.989Z,20.03
2022-12-23T21:16:13.169Z,18.90
2022-12-23T21:18:42.570Z,18.70
2022-12-23T21:21:11.408Z,18.90
2022-12-23T21:23:42.476Z,17.67
2022-12-23T21:26:14.131Z,18.17
2022-12-23T21:28:43.249Z,15.70
2022-12-23T21:31:11.593Z,16.17
2022-12-23T21:33:41.525Z,16.17
2022-12-23T21:36:16.373Z,15.03
2022-12-23T21:38:50.396Z,15.03
2022-12-23T21:41:20.061Z,16.60
2022-12-23T21:43:48.528Z,16.50
2022-12-23T21:46:18.403Z,16.27
2022-12-23T21:48:48.531Z,16.73
2022-12-23T21:51:18.562Z,15.73
2022-12-23T21:53:49.766Z,16.43
2022-12-23T21:56:19.848Z,16.23
2022-12-23T21:58:48.500Z,18.70
2022-12-23T22:01:17.997Z,16.60
2022-12-23T22:03:47.868Z,15.03
2022-12-23T22:06:17.499Z,14.60
2022-12-23T22:08:45.923Z,14.60
2022-12-23T22:11:18.322Z,13.07
2022-12-23T22:13:46.950Z,14.07
2022-12-23T22:16:17.404Z,13.83
2022-12-23T22:18:46.244Z,17.20
2022-12-23T22:21:16.137Z,16.37
2022-12-23T22:23:46.359Z,16.47
2022-12-23T22:26:24.126Z,16.93
2022-12-23T22:28:54.287Z,12.17
2022-12-23T22:31:25.280Z,13.27
2022-12-23T22:33:53.572Z,12.00
2022-12-23T22:36:21.859Z,11.63
2022-12-23T22:38:53.362Z,13.10
2022-12-23T22:41:23.544Z,12.77
2022-12-23T22:43:52.045Z,12.33
2022-12-23T22:46:20.743Z,12.30
2022-12-23T22:48:49.139Z,12.20
2022-12-23T22:51:19.657Z,11.70
2022-12-23T22:53:48.636Z,12.00
2022-12-23T22:56:18.416Z,15.03
2022-12-23T22:58:48.291Z,18.47
2022-12-23T23:01:22.511Z,24.13
2022-12-23T23:03:56.926Z,18.70
2022-12-23T23:06:26.311Z,16.03
2022-12-23T23:08:54.978Z,15.00
2022-12-23T23:11:23.589Z,14.03
2022-12-23T23:13:53.950Z,12.63
2022-12-23T23:16:22.607Z,11.87
2022-12-23T23:18:51.027Z,12.20
2022-12-23T23:21:19.355Z,11.73
2022-12-23T23:23:47.817Z,12.53
2022-12-23T23:26:16.418Z,12.77
2022-12-23T23:28:44.886Z,15.63
2022-12-23T23:34:03.785Z,14.43
2022-12-23T23:36:32.241Z,14.07
2022-12-23T23:39:00.431Z,15.20
2022-12-23T23:41:28.973Z,13.33
2022-12-23T23:43:57.282Z,14.13
2022-12-23T23:46:27.013Z,13.60
2022-12-23T23:48:55.427Z,13.37
2022-12-23T23:51:23.710Z,13.87
2022-12-23T23:53:52.097Z,12.80
2022-12-23T23:56:25.341Z,11.63
2022-12-23T23:58:54.464Z,11.10
